createdAt,value
2023-02-26T00:01:22.450Z,71.68
2023-02-26T00:04:03.058Z,71.69
2023-02-26T00:06:39.203Z,71.74
2023-02-26T00:09:13.900Z,71.78
2023-02-26T00:12:07.383Z,71.70
2023-02-26T00:14:45.699Z,71.79
2023-02-26T00:17:49.439Z,72.05
2023-02-26T00:20:31.783Z,72.01
2023-02-26T00:23:07.593Z,72.08
2023-02-26T00:25:41.031Z,72.13
2023-02-26T00:28:18.494Z,72.15
2023-02-26T00:30:54.045Z,72.24
2023-02-26T00:33:34.537Z,72.28
2023-02-26T00:36:45.097Z,72.28
2023-02-26T00:39:49.309Z,72.26
2023-02-26T00:42:19.760Z,72.32
2023-02-26T00:44:50.846Z,72.31
2023-02-26T00:47:32.323Z,72.32
2023-02-26T00:50:08.050Z,72.40
2023-02-26T00:53:22.562Z,72.40
2023-02-26T00:55:57.325Z,72.45
2023-02-26T00:58:36.062Z,72.38
2023-02-26T01:01:19.040Z,72.39
2023-02-26T01:03:49.588Z,72.49
2023-02-26T01:06:22.991Z,72.48
2023-02-26T01:09:06.170Z,72.46
2023-02-26T01:11:37.559Z,72.38
2023-02-26T01:14:12.372Z,72.35
2023-02-26T01:17:21.072Z,72.30
2023-02-26T01:20:11.089Z,72.41
2023-02-26T01:22:49.157Z,72.37
2023-02-26T01:25:30.964Z,72.35
2023-02-26T01:28:01.252Z,72.39
2023-02-26T01:30:33.259Z,72.37
2023-02-26T01:33:28.375Z,72.34
2023-02-26T01:36:10.102Z,72.34
2023-02-26T01:39:47.641Z,72.34
2023-02-26T01:42:35.053Z,72.37
2023-02-26T01:45:23.613Z,72.34
2023-02-26T01:48:19.995Z,72.30
2023-02-26T01:50:51.716Z,72.33
2023-02-26T01:53:27.460Z,72.30
2023-02-26T01:56:22.787Z,72.30
2023-02-26T01:58:55.465Z,72.24
2023-02-26T02:01:28.329Z,72.18
2023-02-26T02:04:03.548Z,72.18
2023-02-26T02:06:47.105Z,72.27
2023-02-26T02:09:17.433Z,72.34
2023-02-26T02:12:08.720Z,72.35
2023-02-26T02:15:01.290Z,72.22
2023-02-26T02:18:06.891Z,72.33
2023-02-26T02:21:05.915Z,72.23
2023-02-26T02:23:56.342Z,72.27
2023-02-26T02:26:59.544Z,72.25
2023-02-26T02:29:57.113Z,72.22
2023-02-26T02:32:54.141Z,72.26
2023-02-26T02:35:39.939Z,72.21
2023-02-26T02:38:19.576Z,72.18
2023-02-26T02:40:59.087Z,72.19
2023-02-26T02:43:39.762Z,72.21
2023-02-26T02:46:22.577Z,72.16
2023-02-26T02:49:20.950Z,72.17
2023-02-26T02:52:08.625Z,72.07
2023-02-26T02:55:02.931Z,72.06
2023-02-26T02:57:59.949Z,72.01
2023-02-26T03:00:39.804Z,71.99
2023-02-26T03:03:37.921Z,71.95
2023-02-26T03:06:10.760Z,72.01
2023-02-26T03:08:43.451Z,72.02
2023-02-26T03:11:17.702Z,72.14
2023-02-26T03:13:59.718Z,72.02
2023-02-26T03:17:09.776Z,72.05
2023-02-26T03:20:26.024Z,72.04
2023-02-26T03:23:25.542Z,72.04
2023-02-26T03:26:28.797Z,71.93
2023-02-26T03:29:28.609Z,71.85
2023-02-26T03:32:29.041Z,71.81
2023-02-26T03:35:15.161Z,71.66
2023-02-26T03:37:52.832Z,71.64
2023-02-26T03:40:44.213Z,71.65
2023-02-26T03:43:31.834Z,71.62
2023-02-26T03:46:09.797Z,71.48
2023-02-26T03:48:48.913Z,71.52
2023-02-26T03:51:23.727Z,71.50
2023-02-26T03:54:10.900Z,71.52
2023-02-26T03:56:53.843Z,71.50
2023-02-26T04:00:04.065Z,71.60
2023-02-26T04:03:10.238Z,71.66
2023-02-26T04:05:48.143Z,71.63
2023-02-26T04:08:28.340Z,71.62
2023-02-26T04:11:20.124Z,71.51
2023-02-26T04:13:55.798Z,71.45
2023-02-26T04:16:31.073Z,71.25
2023-02-26T04:19:03.725Z,71.34
2023-02-26T04:21:43.386Z,71.33
2023-02-26T04:24:26.313Z,71.36
2023-02-26T04:27:00.457Z,71.32
2023-02-26T04:29:38.281Z,71.17
2023-02-26T04:32:11.424Z,71.12
2023-02-26T04:34:46.477Z,71.11
2023-02-26T04:37:29.344Z,71.01
2023-02-26T04:40:24.362Z,71.00
2023-02-26T04:43:13.020Z,71.06
2023-02-26T04:45:50.908Z,70.97
2023-02-26T04:48:21.615Z,70.92
2023-02-26T04:50:53.066Z,70.83
2023-02-26T04:53:23.513Z,70.69
2023-02-26T04:55:57.297Z,70.59
2023-02-26T04:58:34.296Z,70.55
2023-02-26T05:01:13.984Z,70.57
2023-02-26T05:03:47.207Z,70.60
2023-02-26T05:06:41.586Z,70.55
2023-02-26T05:09:24.731Z,70.66
2023-02-26T05:11:59.147Z,70.62
2023-02-26T05:14:29.237Z,70.58
2023-02-26T05:17:03.895Z,70.56
2023-02-26T05:19:34.632Z,70.49
2023-02-26T05:22:04.469Z,70.51
2023-02-26T05:24:41.832Z,70.47
2023-02-26T05:27:18.101Z,70.46
2023-02-26T05:29:56.187Z,70.48
2023-02-26T05:32:28.948Z,70.46
2023-02-26T05:35:04.952Z,70.46
2023-02-26T05:37:35.453Z,70.43
2023-02-26T05:40:17.671Z,70.43
2023-02-26T05:42:52.935Z,70.68
2023-02-26T05:45:28.981Z,70.57
2023-02-26T05:47:59.205Z,70.64
2023-02-26T05:50:30.770Z,70.66
2023-02-26T05:53:09.244Z,70.56
2023-02-26T05:55:53.413Z,70.56
2023-02-26T05:58:37.460Z,70.58
2023-02-26T06:01:09.857Z,70.51
2023-02-26T06:04:22.304Z,70.45
2023-02-26T06:07:30.422Z,70.47
2023-02-26T06:10:21.737Z,70.59
2023-02-26T06:12:59.889Z,70.51
2023-02-26T06:15:57.727Z,70.53
2023-02-26T06:18:41.494Z,70.60
2023-02-26T06:21:26.772Z,70.62
2023-02-26T06:24:20.191Z,70.65
2023-02-26T06:27:02.836Z,70.55
2023-02-26T06:29:48.641Z,70.62
2023-02-26T06:32:43.020Z,70.41
2023-02-26T06:35:39.546Z,70.50
2023-02-26T06:38:37.802Z,70.67
2023-02-26T06:41:13.344Z,70.68
2023-02-26T06:44:20.900Z,70.54
2023-02-26T06:47:25.530Z,70.47
2023-02-26T06:50:10.520Z,70.39
2023-02-26T06:52:40.960Z,70.48
2023-02-26T06:55:12.517Z,70.44
2023-02-26T06:57:53.948Z,70.40
2023-02-26T07:00:47.299Z,70.38
2023-02-26T07:03:21.716Z,70.35
2023-02-26T07:05:54.707Z,70.38
2023-02-26T07:08:34.044Z,70.37
2023-02-26T07:11:24.011Z,70.39
2023-02-26T07:14:08.028Z,70.49
2023-02-26T07:16:46.311Z,70.30
2023-02-26T07:19:22.021Z,70.14
2023-02-26T07:21:58.128Z,70.09
2023-02-26T07:24:29.287Z,70.05
2023-02-26T07:27:05.266Z,70.23
2023-02-26T07:29:38.115Z,70.19
2023-02-26T07:32:11.371Z,70.14
2023-02-26T07:34:53.232Z,69.99
2023-02-26T07:37:29.535Z,69.87
2023-02-26T07:40:01.217Z,69.68
2023-02-26T07:42:41.301Z,69.66
2023-02-26T07:45:28.038Z,69.93
2023-02-26T07:48:01.476Z,70.02
2023-02-26T07:50:39.061Z,69.94
2023-02-26T07:53:23.143Z,69.87
2023-02-26T07:55:56.438Z,69.73
2023-02-26T07:58:45.706Z,69.59
2023-02-26T08:01:55.658Z,69.44
2023-02-26T08:04:29.130Z,69.19
2023-02-26T08:07:17.796Z,69.44
2023-02-26T08:09:49.788Z,69.38
2023-02-26T08:12:40.498Z,69.34
2023-02-26T08:15:44.406Z,69.46
2023-02-26T08:18:25.393Z,69.58
2023-02-26T08:20:59.930Z,69.48
2023-02-26T08:23:40.430Z,69.54
2023-02-26T08:26:13.861Z,69.44
2023-02-26T08:29:01.481Z,69.20
2023-02-26T08:31:35.138Z,69.05
2023-02-26T08:34:11.535Z,68.99
2023-02-26T08:36:44.524Z,68.81
2023-02-26T08:39:15.233Z,67.98
2023-02-26T08:42:00.423Z,67.34
2023-02-26T08:44:44.185Z,67.13
2023-02-26T08:47:24.527Z,67.00
2023-02-26T08:50:06.896Z,67.22
2023-02-26T08:52:39.678Z,67.22
2023-02-26T08:55:14.870Z,66.97
2023-02-26T08:57:47.441Z,66.55
2023-02-26T09:00:21.100Z,66.39
2023-02-26T09:03:02.555Z,66.18
2023-02-26T09:05:39.106Z,66.23
2023-02-26T09:08:16.113Z,65.89
2023-02-26T09:10:46.549Z,65.75
2023-02-26T09:13:25.416Z,65.97
2023-02-26T09:16:02.244Z,66.15
2023-02-26T09:18:35.605Z,65.98
2023-02-26T09:21:06.432Z,65.52
2023-02-26T09:23:42.394Z,65.60
2023-02-26T09:26:13.433Z,65.96
2023-02-26T09:28:49.695Z,65.98
2023-02-26T09:31:20.678Z,65.79
2023-02-26T09:34:16.390Z,65.32
2023-02-26T09:37:13.209Z,65.36
2023-02-26T09:40:28.159Z,65.39
2023-02-26T09:43:33.825Z,64.58
2023-02-26T09:46:54.386Z,64.63
2023-02-26T09:50:14.524Z,63.79
2023-02-26T09:53:50.821Z,62.06
2023-02-26T09:56:41.681Z,60.65
2023-02-26T09:59:30.830Z,60.02
2023-02-26T10:03:03.166Z,59.77
2023-02-26T10:06:08.889Z,60.02
2023-02-26T10:16:23.464Z,60.52
2023-02-26T10:19:11.466Z,60.13
2023-02-26T10:22:15.248Z,60.13
2023-02-26T10:25:19.135Z,60.19
2023-02-26T10:28:54.348Z,59.74
2023-02-26T10:32:36.389Z,59.49
2023-02-26T10:35:29.265Z,59.16
2023-02-26T10:38:20.862Z,58.94
2023-02-26T10:41:38.128Z,59.21
2023-02-26T10:44:42.900Z,59.11
2023-02-26T10:47:59.451Z,58.82
2023-02-26T10:51:13.715Z,58.84
2023-02-26T10:54:27.616Z,58.27
2023-02-26T11:03:59.589Z,57.33
2023-02-26T11:07:18.934Z,57.25
2023-02-26T11:14:12.996Z,57.47
2023-02-26T11:17:39.688Z,57.91
2023-02-26T11:21:06.050Z,58.36
2023-02-26T11:29:01.621Z,57.36
2023-02-26T11:32:15.194Z,57.21
2023-02-26T11:35:39.260Z,57.17
2023-02-26T11:41:56.330Z,57.42
2023-02-26T11:45:11.776Z,57.39
2023-02-26T11:47:47.718Z,57.62
2023-02-26T11:50:54.283Z,57.81
2023-02-26T11:54:16.965Z,58.03
2023-02-26T11:57:41.492Z,58.30
2023-02-26T12:00:53.146Z,58.41
2023-02-26T12:03:50.736Z,59.05
2023-02-26T12:07:43.699Z,59.76
2023-02-26T12:10:57.352Z,60.18
2023-02-26T12:14:22.807Z,61.14
2023-02-26T12:17:43.181Z,62.47
2023-02-26T12:21:09.349Z,63.37
2023-02-26T12:24:47.936Z,64.22
2023-02-26T12:27:38.247Z,64.70
2023-02-26T12:31:03.492Z,65.10
2023-02-26T12:34:56.457Z,65.45
2023-02-26T12:38:17.369Z,65.87
2023-02-26T12:41:28.293Z,65.78
2023-02-26T12:48:09.501Z,65.90
2023-02-26T12:51:18.440Z,65.84
2023-02-26T12:54:43.730Z,65.96
2023-02-26T12:57:50.324Z,66.13
2023-02-26T13:01:14.091Z,66.15
2023-02-26T13:04:45.463Z,66.43
2023-02-26T13:13:48.202Z,65.31
2023-02-26T13:17:44.830Z,65.22
2023-02-26T13:20:57.926Z,64.89
2023-02-26T13:24:32.900Z,64.73
2023-02-26T13:27:26.977Z,64.77
2023-02-26T13:31:09.007Z,64.95
2023-02-26T13:33:59.359Z,65.19
2023-02-26T13:36:53.414Z,65.39
2023-02-26T13:40:45.359Z,65.27
2023-02-26T13:44:32.955Z,64.82
2023-02-26T13:47:52.297Z,64.32
2023-02-26T13:50:38.076Z,64.01
2023-02-26T13:53:46.277Z,63.89
2023-02-26T13:56:41.584Z,63.38
2023-02-26T14:00:15.550Z,63.29
2023-02-26T14:03:24.757Z,63.32
2023-02-26T14:07:12.494Z,63.42
2023-02-26T14:10:29.681Z,63.33
2023-02-26T14:13:51.589Z,63.11
2023-02-26T14:16:50.602Z,62.89
2023-02-26T14:20:21.583Z,62.53
2023-02-26T14:23:44.081Z,62.44
2023-02-26T14:26:51.364Z,62.13
2023-02-26T14:30:07.404Z,62.02
2023-02-26T14:33:05.991Z,61.85
2023-02-26T14:35:58.096Z,61.77
2023-02-26T14:38:43.224Z,61.49
2023-02-26T14:41:55.731Z,61.17
2023-02-26T14:45:09.064Z,60.58
2023-02-26T14:52:00.347Z,59.72
2023-02-26T14:55:24.839Z,58.98
2023-02-26T14:58:32.866Z,58.68
2023-02-26T15:02:22.140Z,58.30
2023-02-26T15:05:35.673Z,58.17
2023-02-26T15:08:59.405Z,58.03
2023-02-26T15:12:11.175Z,57.99
2023-02-26T15:15:15.711Z,57.91
2023-02-26T15:18:49.404Z,57.65
2023-02-26T15:22:37.657Z,57.22
2023-02-26T15:25:48.959Z,57.20
2023-02-26T15:28:43.302Z,57.11
2023-02-26T15:31:25.933Z,57.03
2023-02-26T15:34:09.476Z,56.90
2023-02-26T15:36:52.752Z,56.80
2023-02-26T15:39:36.758Z,56.87
2023-02-26T15:42:30.020Z,57.01
2023-02-26T15:45:38.774Z,56.84
2023-02-26T15:48:28.192Z,56.71
2023-02-26T15:51:23.530Z,56.82
2023-02-26T15:54:01.105Z,56.99
2023-02-26T15:56:57.981Z,57.23
2023-02-26T16:00:25.411Z,57.37
2023-02-26T16:03:12.019Z,57.57
2023-02-26T16:06:08.066Z,57.86
2023-02-26T16:08:57.517Z,58.12
2023-02-26T16:12:03.766Z,58.03
2023-02-26T16:15:14.545Z,58.32
2023-02-26T16:18:07.159Z,58.44
2023-02-26T16:20:59.344Z,58.54
2023-02-26T16:23:50.479Z,58.66
2023-02-26T16:26:52.519Z,58.75
2023-02-26T16:29:50.917Z,59.05
2023-02-26T16:32:38.572Z,59.20
2023-02-26T16:35:38.403Z,59.38
2023-02-26T16:39:24.266Z,59.48
2023-02-26T16:42:22.542Z,59.49
2023-02-26T16:45:22.905Z,59.55
2023-02-26T16:48:22.819Z,59.65
2023-02-26T16:51:14.049Z,59.58
2023-02-26T16:54:01.378Z,59.40
2023-02-26T16:56:52.867Z,59.16
2023-02-26T16:59:45.406Z,58.99
2023-02-26T17:02:44.663Z,58.95
2023-02-26T17:05:33.584Z,58.74
2023-02-26T17:08:53.722Z,58.65
2023-02-26T17:11:45.315Z,58.68
2023-02-26T17:15:00.757Z,58.53
2023-02-26T17:17:47.185Z,58.48
2023-02-26T17:20:32.042Z,58.45
2023-02-26T17:23:26.159Z,58.57
2023-02-26T17:26:10.162Z,58.69
2023-02-26T17:29:38.904Z,58.89
2023-02-26T17:32:48.287Z,59.07
2023-02-26T17:36:00.762Z,59.19
2023-02-26T17:38:48.048Z,59.22
2023-02-26T17:41:38.378Z,59.43
2023-02-26T17:44:25.631Z,59.44
2023-02-26T17:47:20.670Z,59.46
2023-02-26T17:50:36.627Z,59.50
2023-02-26T17:53:41.619Z,59.61
2023-02-26T17:57:07.629Z,59.68
2023-02-26T18:01:07.181Z,59.86
2023-02-26T18:03:58.626Z,60.11
2023-02-26T18:07:02.804Z,60.24
2023-02-26T18:10:25.252Z,60.47
2023-02-26T18:14:10.841Z,60.60
2023-02-26T18:17:25.315Z,60.70
2023-02-26T18:20:36.477Z,60.92
2023-02-26T18:24:00.211Z,60.96
2023-02-26T18:30:45.807Z,61.16
2023-02-26T18:52:21.920Z,57.04
2023-02-26T19:00:46.483Z,58.15
2023-02-26T19:23:57.134Z,59.24
2023-02-26T19:28:35.378Z,59.05
2023-02-26T19:39:38.926Z,58.62
2023-02-26T19:46:57.161Z,58.25
2023-02-26T20:26:22.439Z,51.45
2023-02-26T20:34:07.232Z,52.60
2023-02-26T20:37:26.264Z,53.14
2023-02-26T20:40:52.468Z,53.47
2023-02-26T20:47:39.078Z,53.88
2023-02-26T20:51:26.658Z,53.81
2023-02-26T20:59:50.696Z,54.25
2023-02-26T21:35:37.581Z,55.26
2023-02-26T21:38:14.836Z,55.25
2023-02-26T21:40:55.772Z,55.38
2023-02-26T21:43:28.237Z,55.16
2023-02-26T21:46:04.303Z,55.19
2023-02-26T21:48:51.264Z,55.21
2023-02-26T21:51:27.429Z,55.30
2023-02-26T21:54:07.210Z,55.31
2023-02-26T21:56:47.292Z,55.26
2023-02-26T21:59:36.892Z,55.53
2023-02-26T22:02:16.842Z,55.68
2023-02-26T22:05:07.759Z,55.81
2023-02-26T22:07:53.895Z,55.72
2023-02-26T22:10:52.968Z,55.97
2023-02-26T22:13:24.681Z,56.08
2023-02-26T22:16:15.613Z,56.07
2023-02-26T22:18:58.033Z,56.14
2023-02-26T22:21:41.995Z,56.17
2023-02-26T22:24:17.201Z,56.34
2023-02-26T22:26:51.355Z,56.50
2023-02-26T22:29:28.214Z,56.64
2023-02-26T22:32:29.753Z,56.78
2023-02-26T22:35:56.188Z,56.84
2023-02-26T22:38:38.220Z,57.03
2023-02-26T22:41:23.674Z,57.31
2023-02-26T22:44:02.568Z,57.43
2023-02-26T22:47:01.017Z,57.59
2023-02-26T22:49:34.326Z,57.83
2023-02-26T22:52:19.412Z,57.88
2023-02-26T22:55:11.001Z,58.20
2023-02-26T22:57:49.136Z,58.43
2023-02-26T23:00:25.003Z,58.55
2023-02-26T23:03:02.830Z,58.69
2023-02-26T23:05:34.723Z,58.76
2023-02-26T23:08:13.854Z,58.78
2023-02-26T23:10:52.931Z,58.90
2023-02-26T23:13:31.088Z,59.07
2023-02-26T23:16:33.272Z,59.32
2023-02-26T23:19:38.636Z,59.36
2023-02-26T23:22:16.526Z,59.52
2023-02-26T23:24:55.972Z,59.68
2023-02-26T23:27:43.259Z,59.77
2023-02-26T23:30:29.723Z,59.78
2023-02-26T23:33:13.001Z,59.92
2023-02-26T23:35:56.468Z,60.00
2023-02-26T23:38:43.280Z,60.10
2023-02-26T23:41:21.206Z,60.10
2023-02-26T23:44:07.840Z,60.26
2023-02-26T23:46:58.244Z,60.48
2023-02-26T23:49:39.814Z,60.71
2023-02-26T23:52:33.557Z,60.63
2023-02-26T23:55:08.558Z,60.74
2023-02-26T23:57:39.792Z,60.86
